Enter the Airport ICAO Code

Search by Airport or City

Current Weather

LELN | León Airport

León, Castile and León, Spain

Last Update 16 Minutes Ago

Sky Without Significant nor Low Altitude Clouds

Temperature of 02 ºC

Light Winds from NorthWest

Temperature

02 ºC

Dew Point Temperature

03 ºC Below Zero

Relative Humidity

69.39 %

Wind Direction

NorthWest (330º, Without Significant Variations)

Wind Velocity

6 km/h (03 kt)

Gusts

None

Visibility

Reduced to 9.0 Kilometers

Sea Level Pressure

1019 hPa (Hectopascals)

Layers of Clouds

None

METAR LELN 022100Z AUTO 33003KT 9000 NSC 02/M03 Q1019

Weather Forecast

LELN | León Airport

León, Castile and León, Spain

Forecast valid for the next 24 Hours

From now on it is expected:

Clear Sky

Light to Moderate Winds from Variable Directions

In 2 hours it is expected the begining of 11 hours with intermittent periods of:

Fog Banks

In 13 to 15 hours it is expected the begining of:

Moderate Winds from West

In 17 hours it is expected the begining of 7 hours with intermittent periods of:

Drizzle

Moderate to Strong Winds from West with Gusts

Maximum Temperature

08 ºC in 18 Hours

Minimum Temperature

02 ºC Below Zero in 9 Hours

TAF LELN 022000Z 0221/0321 VRB05KT CAVOK TX08/0315Z TNM02/0306Z PROB30 TEMPO 0223/0310 1500 BCFG BKN004 BECMG 0310/0312 27010KT PROB40 TEMPO 0314/0321 27018G30KT RADZ BKN014